Data for 11/12/2009

Time Sea-Level Adjusted Pressure Absolute Pressure Temperature Relative Humidity Dew Point   
(mb) (inHg) (mb) (inHg) (C) (F) (%) (C) (F)
00:05 1009 29.8 838 24.75 2.2 35.9 96 1.6 34.9
00:10 1009 29.8 838 24.75 2.1 35.8 96 1.5 34.7
00:15 1009 29.8 838 24.75 1.9 35.5 95 1.2 34.2
00:20 1009 29.8 838 24.75 1.5 34.7 94 0.7 33.3
00:25 1009 29.8 838 24.75 1.1 34 95 0.4 32.7
00:30 1009 29.8 838 24.75 0.9 33.6 95 0.2 32.4
00:35 1009 29.8 838 24.75 0.7 33.3 96 0.1 32.2
00:40 1009 29.8 838 24.75 0.6 33.1 96 0.1 32.1
00:45 1009 29.8 838 24.75 0.5 32.9 96 -0 32
00:50 1009 29.8 838 24.75 0.4 32.8 97 -0 31.9
00:55 1009 29.8 838 24.75 0.4 32.7 97 -0.1 31.9
01:00 1009 29.8 838 24.75 0.4 32.7 97 -0 31.9
01:05 1009 29.8 838 24.75 0.4 32.7 97 -0.1 31.9
01:10 1009 29.8 838 24.75 0.3 32.6 97 -0.1 31.9
01:15 1009 29.8 838 24.75 0.3 32.6 97 -0.1 31.9
01:20 1009 29.8 838 24.75 0.3 32.6 97 -0.1 31.8
01:25 1009 29.8 838 24.75 0.3 32.5 97 -0.1 31.8
01:30 1009 29.8 838 24.75 0.3 32.5 97 -0.2 31.7
01:35 1009 29.8 838 24.75 0.2 32.4 97 -0.2 31.6
01:40 1009 29.8 838 24.75 0.2 32.4 97 -0.2 31.7
01:45 1009 29.8 838 24.75 0.2 32.4 97 -0.2 31.6
01:50 1009 29.8 838 24.75 0.2 32.3 97 -0.2 31.6
01:55 1009 29.8 838 24.75 0.1 32.2 97 -0.3 31.5
02:00 1009 29.8 838 24.75 0.1 32.2 97 -0.3 31.5
02:05 1009 29.8 838 24.75 0.1 32.1 97 -0.3 31.5
02:10 1009 29.8 838 24.75 0 32 97 -0.4 31.4
02:15 1009 29.8 838 24.75 -0.1 31.9 98 -0.4 31.3
02:20 1009 29.8 838 24.75 -0.2 31.7 98 -0.5 31.1
02:25 1009 29.8 838 24.75 -0.2 31.6 98 -0.5 31.1
02:30 1009 29.8 838 24.75 -0.2 31.6 98 -0.5 31.1
02:35 1009 29.8 838 24.75 -0.2 31.6 98 -0.5 31.1
02:40 1009 29.8 838 24.75 -0.2 31.6 98 -0.5 31.2
02:45 1009 29.8 838 24.75 -0.2 31.6 98 -0.5 31.1
02:50 1009 29.8 838 24.75 -0.3 31.5 98 -0.5 31.1
02:55 1009 29.8 838 24.75 -0.3 31.4 99 -0.6 31
03:00 1009 29.8 838 24.75 -0.4 31.3 98 -0.6 30.9
03:05 1009 29.8 838 24.75 -0.4 31.2 99 -0.6 30.9
03:10 1009 29.8 838 24.75 -0.4 31.2 99 -0.5 31
03:15 1009 29.8 838 24.75 -0.4 31.3 99 -0.5 31.1
03:20 1009 29.8 838 24.75 -0.4 31.2 99 -0.5 31.1
03:25 1009 29.8 838 24.75 -0.5 31.2 99 -0.6 31
03:30 1009 29.8 838 24.75 -0.5 31.1 99 -0.6 30.9
03:35 1009 29.8 838 24.75 -0.5 31 100 -0.6 30.9
03:40 1009 29.8 838 24.75 -0.5 31.1 100 -0.6 31
03:45 1009 29.8 838 24.75 -0.6 31 100 -0.6 30.9
03:50 1009 29.8 838 24.75 -0.7 30.8 100 -0.7 30.7
03:55 1009 29.8 838 24.75 -0.7 30.8 100 -0.7 30.7
04:00 1009 29.8 838 24.75 -0.7 30.8 100 -0.7 30.7
04:05 1008 29.77 838 24.75 -0.6 30.9 100 -0.7 30.8
04:10 1008 29.77 838 24.75 -0.7 30.8 100 -0.7 30.7
04:15 1008 29.77 838 24.75 -0.7 30.7 100 -0.8 30.6
04:20 1008 29.77 838 24.75 -0.8 30.6 100 -0.8 30.5
04:25 1009 29.8 838 24.75 -0.8 30.5 100 -0.9 30.5
04:30 1009 29.8 838 24.75 -0.9 30.4 100 -0.9 30.3
04:35 1009 29.8 838 24.75 -1 30.3 100 -1 30.2
04:40 1009 29.8 838 24.75 -1 30.1 100 -1.1 30.1
04:45 1009 29.8 838 24.75 -1.1 29.9 100 -1.2 29.9
04:50 1008 29.77 838 24.75 -1.2 29.9 100 -1.2 29.8
04:55 1008 29.77 837 24.72 -1.2 29.8 100 -1.2 29.8
05:00 1008 29.77 837 24.72 -1.3 29.7 100 -1.3 29.6
05:05 1008 29.77 837 24.72 -1.3 29.7 100 -1.3 29.6
05:10 1008 29.77 837 24.72 -1.3 29.6 100 -1.3 29.6
05:15 1008 29.77 837 24.72 -1.3 29.7 100 -1.3 29.6
05:20 1008 29.77 837 24.72 -1.3 29.7 100 -1.3 29.7
05:25 1008 29.77 837 24.72 -1.3 29.7 100 -1.3 29.7
05:30 1008 29.77 837 24.72 -1.2 29.8 100 -1.3 29.7
05:35 1008 29.77 837 24.72 -1.3 29.8 100 -1.3 29.7
05:40 1008 29.77 837 24.72 -1.3 29.7 100 -1.3 29.7
05:45 1008 29.77 837 24.72 -1.2 29.8 100 -1.3 29.7
05:50 1008 29.77 837 24.72 -1.2 29.8 100 -1.2 29.8
05:55 1008 29.77 837 24.72 -1.2 29.8 100 -1.2 29.8
06:00 1008 29.77 837 24.72 -1.2 29.8 100 -1.3 29.7
06:05 1008 29.77 837 24.72 -1.2 29.8 100 -1.2 29.8
06:10 1008 29.77 837 24.72 -1.2 29.8 100 -1.2 29.8
06:15 1008 29.77 837 24.72 -1.2 29.9 100 -1.2 29.9
06:20 1008 29.77 837 24.72 -1.1 29.9 100 -1.2 29.9
06:25 1008 29.77 837 24.72 -1.2 29.9 100 -1.2 29.9
06:30 1008 29.77 837 24.72 -1.2 29.9 100 -1.2 29.9
06:35 1008 29.77 837 24.72 -1.2 29.9 100 -1.2 29.9
06:40 1008 29.77 837 24.72 -1.2 29.9 100 -1.2 29.9
06:45 1008 29.77 837 24.72 -1.2 29.9 100 -1.2 29.8
06:50 1008 29.77 837 24.72 -1.2 29.8 100 -1.3 29.7
06:55 1008 29.77 837 24.72 -1.3 29.7 100 -1.3 29.7
07:00 1008 29.77 837 24.72 -1.3 29.6 100 -1.4 29.6
07:05 1008 29.77 837 24.72 -1.4 29.6 100 -1.4 29.5
07:10 1008 29.77 837 24.72 -1.4 29.6 100 -1.4 29.5
07:15 1008 29.77 837 24.72 -1.4 29.6 100 -1.4 29.5
07:20 1008 29.77 837 24.72 -1.4 29.6 100 -1.4 29.5
07:25 1008 29.77 837 24.72 -1.4 29.6 100 -1.4 29.5
07:30 1008 29.77 837 24.72 -1.4 29.5 100 -1.4 29.5
07:35 1008 29.77 837 24.72 -1.4 29.5 100 -1.4 29.5
07:40 1008 29.77 837 24.72 -1.3 29.6 100 -1.4 29.6
07:45 1008 29.77 837 24.72 -1.3 29.6 100 -1.4 29.6
07:50 1008 29.77 837 24.72 -1.3 29.7 100 -1.3 29.6
07:55 1008 29.77 837 24.72 -1.3 29.7 100 -1.3 29.6
08:00 1008 29.77 837 24.72 -1.2 29.8 100 -1.3 29.7
08:05 1008 29.77 837 24.72 -1.2 29.8 100 -1.3 29.7
08:10 1008 29.77 837 24.72 -1.2 29.8 100 -1.3 29.7
08:15 1008 29.77 837 24.72 -1.2 29.8 100 -1.2 29.8
08:20 1008 29.77 837 24.72 -1.2 29.9 100 -1.2 29.9
08:25 1008 29.77 837 24.72 -1.1 30 100 -1.1 29.9
08:30 1008 29.77 837 24.72 -1.1 30 100 -1.1 29.9
08:35 1008 29.77 837 24.72 -1.1 30 100 -1.1 30
08:40 1008 29.77 837 24.72 -1.1 30 100 -1.1 30
08:45 1008 29.77 837 24.72 -1.1 30 100 -1.1 30
08:50 1008 29.77 837 24.72 -1.1 30.1 100 -1.1 30
08:55 1008 29.77 837 24.72 -1 30.2 100 -1 30.1
09:00 1008 29.77 837 24.72 -1 30.3 100 -1 30.2
09:05 1008 29.77 837 24.72 -0.9 30.4 100 -0.9 30.4
09:10 1008 29.77 837 24.72 -0.8 30.6 100 -0.8 30.6
09:15 1008 29.77 837 24.72 -0.7 30.8 100 -0.7 30.7
09:20 1008 29.77 837 24.72 -0.6 31 100 -0.6 30.9
09:25 1008 29.77 837 24.72 -0.5 31.1 100 -0.6 31
09:30 1008 29.77 837 24.72 -0.4 31.3 100 -0.5 31.2
09:35 1008 29.77 837 24.72 -0.3 31.5 99 -0.4 31.3
09:40 1008 29.77 837 24.72 -0.3 31.5 99 -0.4 31.3
09:45 1008 29.77 837 24.72 -0.3 31.5 98 -0.5 31.1
09:50 1008 29.77 837 24.72 -0.4 31.3 98 -0.6 30.9
09:55 1008 29.77 837 24.72 -0.4 31.2 98 -0.7 30.7
10:00 1008 29.77 837 24.72 -0.4 31.2 98 -0.7 30.7
10:05 1008 29.77 837 24.72 -0.4 31.4 98 -0.6 30.9
10:10 1008 29.77 837 24.72 -0.2 31.6 98 -0.4 31.2
10:15 1008 29.77 837 24.72 -0.1 31.9 98 -0.4 31.4
10:20 1008 29.77 837 24.72 -0 32 98 -0.3 31.5
10:25 1008 29.77 837 24.72 -0 32 98 -0.3 31.4
10:30 1008 29.77 837 24.72 -0 32 98 -0.3 31.4
10:35 1008 29.77 837 24.72 -0.1 31.8 97 -0.5 31.1
10:40 1008 29.77 837 24.72 -0.1 31.9 97 -0.4 31.2
10:45 1008 29.77 837 24.72 0.1 32.2 97 -0.3 31.5
10:50 1008 29.77 837 24.72 0.3 32.5 97 -0.2 31.7
10:55 1008 29.77 837 24.72 0.2 32.4 97 -0.2 31.6
11:00 1008 29.77 837 24.72 0.2 32.3 96 -0.4 31.3
11:05 1008 29.77 837 24.72 0.1 32.2 96 -0.4 31.3
11:10 1008 29.77 837 24.72 0.1 32.2 96 -0.5 31.2
11:15 1008 29.77 837 24.72 0.1 32.2 96 -0.4 31.2
11:20 1008 29.77 837 24.72 0.1 32.1 96 -0.4 31.2
11:25 1008 29.77 837 24.72 0 32.1 96 -0.5 31.1
11:30 1008 29.77 837 24.72 0 32 96 -0.6 31
11:35 1008 29.77 837 24.72 -0 31.9 96 -0.6 30.9
11:40 1008 29.77 837 24.72 -0 32 96 -0.6 30.8
11:45 1008 29.77 837 24.72 0 32.1 96 -0.5 31
11:50 1008 29.77 837 24.72 0.1 32.1 96 -0.6 31
11:55 1008 29.77 837 24.72 0 32.1 95 -0.7 30.8
12:00 1008 29.77 837 24.72 0 32 95 -0.7 30.8
12:05 1008 29.77 837 24.72 0.1 32.1 95 -0.7 30.8
12:10 1008 29.77 837 24.72 0.1 32.3 95 -0.6 30.9
12:15 1008 29.77 837 24.72 0.2 32.3 94 -0.7 30.7
12:20 1008 29.77 837 24.72 0.2 32.3 94 -0.7 30.7
12:25 1008 29.77 837 24.72 0.2 32.4 94 -0.6 30.9
12:30 1008 29.77 837 24.72 0.3 32.5 93 -0.7 30.7
12:35 1008 29.77 837 24.72 0.3 32.6 93 -0.7 30.8
12:40 1008 29.77 837 24.72 0.4 32.7 93 -0.7 30.8
12:45 1008 29.77 837 24.72 0.4 32.7 92 -0.8 30.6
12:50 1008 29.77 837 24.72 0.3 32.6 92 -0.9 30.4
12:55 1008 29.77 837 24.72 0.4 32.7 92 -0.8 30.6
13:00 1008 29.77 837 24.72 0.4 32.7 92 -0.8 30.6
13:05 1008 29.77 837 24.72 0.5 32.9 92 -0.7 30.8
13:10 1008 29.77 837 24.72 0.6 33.1 91 -0.7 30.8
13:15 1008 29.77 837 24.72 0.8 33.4 92 -0.4 31.2
13:20 1008 29.77 837 24.72 0.9 33.6 90 -0.5 31.1
13:25 1008 29.77 837 24.72 1 33.7 91 -0.4 31.3
13:30 1008 29.77 837 24.72 0.8 33.4 90 -0.6 30.9
13:35 1008 29.77 837 24.72 0.6 33 91 -0.8 30.6
13:40 1008 29.77 837 24.72 0.4 32.8 91 -0.9 30.4
13:45 1008 29.77 837 24.72 0 32.1 90 -1.4 29.5
13:50 1008 29.77 837 24.72 -0.3 31.5 92 -1.4 29.4
13:55 1008 29.77 837 24.72 -0.2 31.6 92 -1.4 29.5
14:00 1008 29.77 837 24.72 -0.1 31.8 92 -1.3 29.6
14:05 1008 29.77 837 24.72 0 32 91 -1.3 29.7
14:10 1008 29.77 837 24.72 0 32 91 -1.3 29.7
14:15 1008 29.77 837 24.72 -0 32 91 -1.4 29.5
14:20 1008 29.77 837 24.72 -0.1 31.9 91 -1.4 29.5
14:25 1008 29.77 837 24.72 -0.2 31.6 91 -1.5 29.3
14:30 1008 29.77 838 24.75 -0.2 31.6 91 -1.5 29.2
14:35 1008 29.77 838 24.75 -0.2 31.6 92 -1.4 29.6
14:40 1008 29.77 838 24.75 -0.2 31.7 93 -1.2 29.9
14:45 1008 29.77 838 24.75 0 32 92 -1.2 29.9
14:50 1008 29.77 838 24.75 0.1 32.1 91 -1.2 29.8
14:55 1008 29.77 838 24.75 0 32 91 -1.2 29.8
15:00 1008 29.77 838 24.75 -0 32 91 -1.3 29.7
15:05 1008 29.77 838 24.75 -0 31.9 91 -1.4 29.5
15:10 1009 29.8 838 24.75 -0.2 31.7 91 -1.5 29.3
15:15 1009 29.8 838 24.75 -0.3 31.5 91 -1.6 29.2
15:20 1009 29.8 838 24.75 -0.4 31.3 92 -1.6 29.1
15:25 1009 29.8 838 24.75 -0.4 31.2 92 -1.6 29
15:30 1009 29.8 838 24.75 -0.6 31 92 -1.6 29.1
15:35 1009 29.8 838 24.75 -0.6 30.9 93 -1.6 29.1
15:40 1009 29.8 838 24.75 -0.7 30.7 93 -1.7 29
15:45 1009 29.8 838 24.75 -0.8 30.6 93 -1.7 28.9
15:50 1009 29.8 838 24.75 -0.9 30.4 93 -1.8 28.7
15:55 1009 29.8 838 24.75 -1 30.2 94 -1.9 28.6
16:00 1009 29.8 838 24.75 -1 30.1 95 -1.8 28.7
16:05 1009 29.8 838 24.75 -1 30.1 95 -1.8 28.8
16:10 1009 29.8 838 24.75 -1.1 30 95 -1.9 28.7
16:15 1009 29.8 838 24.75 -1.1 29.9 95 -1.9 28.5
16:20 1009 29.8 838 24.75 -1.2 29.9 95 -1.9 28.6
16:25 1009 29.8 838 24.75 -1.2 29.9 95 -1.9 28.6
16:30 1009 29.8 839 24.78 -1.2 29.9 95 -1.9 28.6
16:35 1009 29.8 839 24.78 -1.2 29.8 95 -1.9 28.6
16:40 1009 29.8 839 24.78 -1.3 29.6 95 -2.1 28.2
16:45 1010 29.83 839 24.78 -1.6 29.1 94 -2.4 27.6
16:50 1009 29.8 839 24.78 -1.9 28.5 94 -2.7 27.1
16:55 1009 29.8 839 24.78 -2.2 28.1 96 -2.8 27
17:00 1009 29.8 839 24.78 -2.2 28 96 -2.8 26.9
17:05 1010 29.83 839 24.78 -2.3 27.8 96 -2.9 26.8
17:10 1010 29.83 839 24.78 -2.5 27.6 96 -3 26.6
17:15 1010 29.83 839 24.78 -2.5 27.4 97 -3 26.6
17:20 1010 29.83 839 24.78 -2.5 27.5 97 -3 26.6
17:25 1010 29.83 839 24.78 -2.6 27.4 96 -3.1 26.5
17:30 1010 29.83 839 24.78 -2.7 27.2 97 -3.1 26.4
17:35 1010 29.83 839 24.78 -2.7 27.2 97 -3.1 26.5
17:40 1010 29.83 839 24.78 -2.7 27.1 97 -3.2 26.3
17:45 1010 29.83 839 24.78 -2.8 26.9 97 -3.3 26.1
17:50 1010 29.83 839 24.78 -2.9 26.8 97 -3.3 26.1
17:55 1010 29.83 839 24.78 -2.8 26.9 97 -3.2 26.2
18:00 1010 29.83 839 24.78 -2.8 26.9 97 -3.2 26.2
18:05 1010 29.83 839 24.78 -2.8 27 97 -3.2 26.3
18:10 1010 29.83 839 24.78 -2.7 27.2 97 -3.1 26.5
18:15 1010 29.83 839 24.78 -2.7 27.1 97 -3.1 26.4
18:20 1010 29.83 839 24.78 -2.7 27.2 97 -3.1 26.5
18:25 1010 29.83 839 24.78 -2.6 27.3 97 -3 26.6
18:30 1010 29.83 839 24.78 -2.6 27.3 97 -3 26.6
18:35 1010 29.83 839 24.78 -2.6 27.2 97 -3.1 26.4
18:40 1010 29.83 839 24.78 -2.7 27.2 97 -3.1 26.5
18:45 1010 29.83 839 24.78 -2.6 27.3 97 -3 26.5
18:50 1010 29.83 839 24.78 -2.6 27.3 97 -3 26.5
18:55 1010 29.83 839 24.78 -2.6 27.4 97 -3 26.6
19:00 1010 29.83 839 24.78 -2.5 27.4 97 -3 26.7
19:05 1010 29.83 839 24.78 -2.5 27.5 97 -2.9 26.7
19:10 1010 29.83 839 24.78 -2.5 27.5 97 -3 26.7
19:15 1010 29.83 839 24.78 -2.5 27.4 97 -3 26.7
19:20 1010 29.83 839 24.78 -2.6 27.4 97 -3 26.6
19:25 1010 29.83 839 24.78 -2.6 27.3 97 -3.1 26.4
19:30 1010 29.83 839 24.78 -2.7 27.1 97 -3.2 26.2
19:35 1010 29.83 839 24.78 -2.7 27.1 97 -3.2 26.2
19:40 1010 29.83 839 24.78 -2.7 27.1 97 -3.2 26.3
19:45 1010 29.83 839 24.78 -2.7 27.2 97 -3.1 26.4
19:50 1010 29.83 839 24.78 -2.6 27.2 97 -3.1 26.5
19:55 1010 29.83 839 24.78 -2.6 27.3 97 -3 26.5
20:00 1010 29.83 839 24.78 -2.6 27.4 97 -3 26.6
20:05 1010 29.83 839 24.78 -2.6 27.4 97 -3 26.6
20:10 1010 29.83 839 24.78 -2.5 27.4 97 -2.9 26.7
20:15 1010 29.83 839 24.78 -2.5 27.4 97 -2.9 26.7
20:20 1010 29.83 839 24.78 -2.5 27.5 97 -2.9 26.8
20:25 1010 29.83 839 24.78 -2.5 27.5 97 -2.9 26.8
20:30 1010 29.83 839 24.78 -2.6 27.4 97 -2.9 26.7
20:35 1010 29.83 839 24.78 -2.6 27.3 97 -3 26.5
20:40 1010 29.83 839 24.78 -2.7 27.1 97 -3.1 26.5
20:45 1010 29.83 839 24.78 -2.7 27.1 97 -3.1 26.3
20:50 1010 29.83 839 24.78 -2.8 27 97 -3.2 26.2
20:55 1010 29.83 839 24.78 -2.8 26.9 97 -3.3 26.1
21:00 1010 29.83 840 24.81 -2.9 26.8 97 -3.3 26
21:05 1010 29.83 840 24.81 -2.9 26.8 97 -3.3 26
21:10 1010 29.83 840 24.81 -3 26.6 97 -3.4 25.8
21:15 1011 29.85 840 24.81 -3 26.6 97 -3.5 25.7
21:20 1011 29.85 840 24.81 -3.1 26.5 97 -3.5 25.7
21:25 1011 29.85 840 24.81 -3.1 26.4 96 -3.6 25.5
21:30 1011 29.85 840 24.81 -3.1 26.4 96 -3.6 25.5
21:35 1011 29.85 840 24.81 -3.1 26.4 96 -3.6 25.5
21:40 1011 29.85 840 24.81 -3.2 26.3 96 -3.7 25.4
21:45 1011 29.85 840 24.81 -3.2 26.3 96 -3.7 25.4
21:50 1011 29.85 840 24.81 -3.2 26.2 96 -3.7 25.3
21:55 1011 29.85 840 24.81 -3.2 26.2 96 -3.8 25.2
22:00 1011 29.85 840 24.81 -3.2 26.2 96 -3.7 25.3
22:05 1011 29.85 840 24.81 -3.2 26.2 96 -3.7 25.3
22:10 1010 29.83 840 24.81 -3.2 26.2 96 -3.8 25.2
22:15 1011 29.85 840 24.81 -3.3 26.1 96 -3.8 25.2
22:20 1011 29.85 840 24.81 -3.3 26.1 96 -3.8 25.2
22:25 1011 29.85 840 24.81 -3.3 26.1 96 -3.8 25.2
22:30 1011 29.85 840 24.81 -3.3 26.1 97 -3.7 25.3
22:35 1011 29.85 840 24.81 -3.3 26.1 97 -3.7 25.3
22:40 1011 29.85 840 24.81 -3.3 26 97 -3.8 25.2
22:45 1011 29.85 840 24.81 -3.4 26 97 -3.8 25.2
22:50 1011 29.85 840 24.81 -3.3 26 97 -3.8 25.2
22:55 1010 29.83 840 24.81 -3.3 26.1 97 -3.7 25.3
23:00 1011 29.85 840 24.81 -3.3 26.1 97 -3.7 25.3
23:05 1011 29.85 840 24.81 -3.3 26.1 97 -3.7 25.3
23:10 1010 29.83 840 24.81 -3.3 26.1 97 -3.7 25.3
23:15 1010 29.83 840 24.81 -3.3 26.1 97 -3.7 25.4
23:20 1010 29.83 840 24.81 -3.3 26.1 97 -3.7 25.4
23:25 1010 29.83 840 24.81 -3.3 26.1 97 -3.7 25.4
23:30 1011 29.85 840 24.81 -3.3 26.1 97 -3.7 25.3
23:35 1011 29.85 840 24.81 -3.3 26.1 97 -3.7 25.3
23:40 1011 29.85 840 24.81 -3.3 26 97 -3.7 25.3
23:45 1011 29.85 840 24.81 -3.3 26 97 -3.7 25.3
23:50 1011 29.85 840 24.81 -3.3 26 97 -3.8 25.2
23:55 1011 29.85 840 24.81 -3.4 25.9 97 -3.8 25.1
24:00 1011 29.85 840 24.81 -3.4 25.8 97 -3.9 25